createdAt,value
2017-02-11T00:00:14.600Z,1006.68
2017-02-11T00:00:36.308Z,1006.69
2017-02-11T00:01:02.798Z,1006.70
2017-02-11T00:01:24.510Z,1006.65
2017-02-11T00:01:46.254Z,1006.66
2017-02-11T00:02:12.709Z,1006.70
2017-02-11T00:02:34.407Z,1006.74
2017-02-11T00:02:56.129Z,1006.68
2017-02-11T00:03:22.598Z,1006.64
2017-02-11T00:03:44.328Z,1006.67
2017-02-11T00:04:06.031Z,1006.72
2017-02-11T00:04:27.738Z,1006.70
2017-02-11T00:04:49.446Z,1006.67
2017-02-11T00:05:15.922Z,1006.72
2017-02-11T00:05:37.623Z,1006.72
2017-02-11T00:06:30.565Z,1006.74
2017-02-11T00:06:52.304Z,1006.73
2017-02-11T00:07:14.044Z,1006.70
2017-02-11T00:07:40.517Z,1006.74
2017-02-11T00:08:07.105Z,1006.76
2017-02-11T00:08:28.794Z,1006.79
2017-02-11T00:08:50.495Z,1006.76
2017-02-11T00:09:12.203Z,1006.78
2017-02-11T00:09:33.902Z,1006.74
2017-02-11T00:10:00.462Z,1006.74
2017-02-11T00:10:22.165Z,1006.77
2017-02-11T00:10:43.886Z,1006.78
2017-02-11T00:11:10.355Z,1006.78
2017-02-11T00:11:32.049Z,1006.73
2017-02-11T00:12:25.128Z,1006.71
2017-02-11T00:13:18.079Z,1006.71
2017-02-11T00:13:39.785Z,1006.71
2017-02-11T00:14:01.516Z,1006.63
2017-02-11T00:14:23.211Z,1006.70
2017-02-11T00:14:44.924Z,1006.72
2017-02-11T00:15:11.509Z,1006.73
2017-02-11T00:15:33.480Z,1006.68
2017-02-11T00:15:59.962Z,1006.73
2017-02-11T00:16:21.692Z,1006.68
2017-02-11T00:16:43.382Z,1006.67
2017-02-11T00:17:09.857Z,1006.62
2017-02-11T00:17:31.582Z,1006.69
2017-02-11T00:17:53.388Z,1006.64
2017-02-11T00:18:47.335Z,1006.73
2017-02-11T00:19:09.039Z,1006.66
2017-02-11T00:19:35.530Z,1006.66
2017-02-11T00:19:57.266Z,1006.69
2017-02-11T00:20:18.960Z,1006.68
2017-02-11T00:20:45.442Z,1006.66
2017-02-11T00:21:07.141Z,1006.63
2017-02-11T00:21:28.835Z,1006.66
2017-02-11T00:21:55.303Z,1006.64
2017-02-11T00:22:17.009Z,1006.64
2017-02-11T00:22:38.736Z,1006.62
2017-02-11T00:23:00.431Z,1006.64
2017-02-11T00:23:22.133Z,1006.64
2017-02-11T00:23:43.851Z,1006.65
2017-02-11T00:24:10.337Z,1006.61
2017-02-11T00:24:32.044Z,1006.60
2017-02-11T00:25:29.791Z,1006.60
2017-02-11T00:25:51.512Z,1006.54
2017-02-11T00:26:13.227Z,1006.57
2017-02-11T00:26:34.923Z,1006.56
2017-02-11T00:26:57.678Z,1006.61
2017-02-11T00:27:24.162Z,1006.56
2017-02-11T00:27:45.918Z,1006.55
2017-02-11T00:29:19.703Z,1006.53
2017-02-11T00:29:41.396Z,1006.51
2017-02-11T00:30:03.104Z,1006.53
2017-02-11T00:30:24.801Z,1006.55
2017-02-11T00:30:46.495Z,1006.54
2017-02-11T00:31:17.749Z,1006.51
2017-02-11T00:31:39.458Z,1006.55
2017-02-11T00:32:46.758Z,1006.48
2017-02-11T00:33:08.475Z,1006.49
2017-02-11T00:33:30.174Z,1006.49
2017-02-11T00:33:56.666Z,1006.45
2017-02-11T00:34:18.368Z,1006.42
2017-02-11T00:35:11.328Z,1006.39
2017-02-11T00:35:33.046Z,1006.41
2017-02-11T00:35:54.777Z,1006.33
2017-02-11T00:36:16.487Z,1006.39
2017-02-11T00:36:38.202Z,1006.38
2017-02-11T00:37:04.664Z,1006.33
2017-02-11T00:37:26.365Z,1006.29
2017-02-11T00:37:48.088Z,1006.33
2017-02-11T00:38:09.798Z,1006.33
2017-02-11T00:38:31.507Z,1006.31
2017-02-11T00:38:53.232Z,1006.31
2017-02-11T00:39:19.714Z,1006.27
2017-02-11T00:39:41.439Z,1006.30
2017-02-11T00:40:34.397Z,1006.19
2017-02-11T00:40:56.098Z,1006.26
2017-02-11T00:41:22.580Z,1006.24
2017-02-11T00:41:44.297Z,1006.34
2017-02-11T00:42:06.008Z,1006.20
2017-02-11T00:42:27.706Z,1006.31
2017-02-11T00:42:49.420Z,1006.28
2017-02-11T00:43:42.395Z,1006.24
2017-02-11T00:44:08.872Z,1006.25
2017-02-11T00:44:30.593Z,1006.30
2017-02-11T00:44:57.080Z,1006.32
2017-02-11T00:45:18.818Z,1006.30
2017-02-11T00:46:11.787Z,1006.28
2017-02-11T00:47:04.759Z,1006.27
2017-02-11T00:47:57.746Z,1006.23
2017-02-11T00:48:50.704Z,1006.26
2017-02-11T00:49:57.992Z,1006.29
2017-02-11T00:50:19.753Z,1006.23
2017-02-11T00:50:46.236Z,1006.26
2017-02-11T00:51:07.938Z,1006.22
2017-02-11T00:51:29.653Z,1006.22
2017-02-11T00:51:56.148Z,1006.19
2017-02-11T00:52:17.846Z,1006.17
2017-02-11T00:53:10.801Z,1006.19
2017-02-11T00:53:32.521Z,1006.16
2017-02-11T00:53:58.993Z,1006.15
2017-02-11T00:54:20.700Z,1006.09
2017-02-11T00:54:42.401Z,1006.08
2017-02-11T00:55:04.117Z,1006.08
2017-02-11T00:55:25.855Z,1006.11
2017-02-11T00:55:47.540Z,1006.10
2017-02-11T00:56:40.481Z,1006.09
2017-02-11T00:57:33.472Z,1006.01
2017-02-11T00:58:26.438Z,1006.05
2017-02-11T00:58:48.141Z,1006.12
2017-02-11T00:59:41.099Z,1006.11
2017-02-11T01:00:34.098Z,1006.05
2017-02-11T01:01:27.048Z,1006.02
2017-02-11T01:01:53.530Z,1006.15
2017-02-11T01:02:15.260Z,1006.22
2017-02-11T01:03:08.220Z,1006.10
2017-02-11T01:03:29.927Z,1006.19
2017-02-11T01:03:51.661Z,1006.16
2017-02-11T01:04:13.353Z,1006.05
2017-02-11T01:04:35.061Z,1006.10
2017-02-11T01:05:01.545Z,1006.20
2017-02-11T01:05:23.266Z,1006.10
2017-02-11T01:05:44.977Z,1006.08
2017-02-11T01:06:37.925Z,1006.08
2017-02-11T01:06:59.639Z,1006.12
2017-02-11T01:07:26.118Z,1006.02
2017-02-11T01:07:47.825Z,1005.98
2017-02-11T01:08:09.532Z,1006.02
2017-02-11T01:08:31.230Z,1006.02
2017-02-11T01:08:52.938Z,1006.00
2017-02-11T01:09:14.642Z,1005.91
2017-02-11T01:09:36.359Z,1005.96
2017-02-11T01:09:58.057Z,1005.90
2017-02-11T01:10:51.072Z,1005.95
2017-02-11T01:11:12.790Z,1005.94
2017-02-11T01:11:34.495Z,1005.91
2017-02-11T01:11:56.205Z,1006.00
2017-02-11T01:12:17.914Z,1005.90
2017-02-11T01:12:39.622Z,1005.92
2017-02-11T01:13:01.346Z,1005.95
2017-02-11T01:13:54.301Z,1005.91
2017-02-11T01:14:16.009Z,1005.97
2017-02-11T01:15:11.705Z,1006.09
2017-02-11T01:15:38.183Z,1006.05
2017-02-11T01:15:59.884Z,1006.02
2017-02-11T01:16:52.841Z,1006.04
2017-02-11T01:17:14.554Z,1006.03
2017-02-11T01:17:41.041Z,1005.96
2017-02-11T01:18:02.749Z,1006.05
2017-02-11T01:18:24.454Z,1006.09
2017-02-11T01:18:50.929Z,1006.03
2017-02-11T01:19:12.630Z,1006.01
2017-02-11T01:19:34.332Z,1006.00
2017-02-11T01:20:00.829Z,1006.10
2017-02-11T01:20:22.524Z,1005.99
2017-02-11T01:20:44.254Z,1005.97
2017-02-11T01:21:05.969Z,1005.94
2017-02-11T01:21:27.703Z,1005.92
2017-02-11T01:22:20.651Z,1005.89
2017-02-11T01:22:42.367Z,1005.98
2017-02-11T01:23:08.849Z,1005.92
2017-02-11T01:23:30.556Z,1005.94
2017-02-11T01:24:23.596Z,1005.99
2017-02-11T01:25:26.686Z,1005.95
2017-02-11T01:25:48.397Z,1006.01
2017-02-11T01:26:10.213Z,1006.01
2017-02-11T01:26:31.944Z,1006.10
2017-02-11T01:26:53.647Z,1006.14
2017-02-11T01:27:15.343Z,1006.06
2017-02-11T01:27:41.823Z,1006.11
2017-02-11T01:28:03.514Z,1006.15
2017-02-11T01:28:25.231Z,1006.24
2017-02-11T01:28:51.716Z,1006.31
2017-02-11T01:29:13.437Z,1006.24
2017-02-11T01:29:35.163Z,1006.23
2017-02-11T01:30:01.656Z,1006.19
2017-02-11T01:30:23.362Z,1006.29
2017-02-11T01:30:45.160Z,1006.24
2017-02-11T01:31:11.536Z,1006.20
2017-02-11T01:31:33.391Z,1006.16
2017-02-11T01:31:59.957Z,1006.16
2017-02-11T01:32:21.744Z,1006.11
2017-02-11T01:33:24.353Z,1006.04
2017-02-11T01:33:46.154Z,1006.01
2017-02-11T01:34:39.114Z,1005.98
2017-02-11T01:35:42.303Z,1005.99
2017-02-11T01:36:04.229Z,1006.08
2017-02-11T01:36:30.733Z,1006.04
2017-02-11T01:36:52.523Z,1006.02
2017-02-11T01:37:19.001Z,1006.04
2017-02-11T01:37:40.811Z,1006.09
2017-02-11T01:38:02.692Z,1006.02
2017-02-11T01:38:24.403Z,1006.04
2017-02-11T01:38:46.213Z,1006.06
2017-02-11T01:39:07.922Z,1006.11
2017-02-11T01:40:11.087Z,1006.00
2017-02-11T01:40:32.927Z,1006.11
2017-02-11T01:40:54.702Z,1006.01
2017-02-11T01:41:21.182Z,1005.97
2017-02-11T01:41:42.909Z,1006.05
2017-02-11T01:42:35.958Z,1005.92
2017-02-11T01:43:28.935Z,1005.95
2017-02-11T01:43:50.830Z,1005.98
2017-02-11T01:44:12.534Z,1005.96
2017-02-11T01:44:34.345Z,1005.88
2017-02-11T01:45:00.809Z,1005.94
2017-02-11T01:45:22.516Z,1005.96
2017-02-11T01:45:48.996Z,1005.94
2017-02-11T01:46:10.801Z,1005.96
2017-02-11T01:46:32.496Z,1005.89
2017-02-11T01:47:25.446Z,1005.77
2017-02-11T01:47:51.935Z,1005.80
2017-02-11T01:48:13.630Z,1005.82
2017-02-11T01:48:35.322Z,1005.86
2017-02-11T01:48:57.130Z,1005.87
2017-02-11T01:49:18.833Z,1005.76
2017-02-11T01:49:40.541Z,1005.80
2017-02-11T01:50:07.015Z,1005.78
2017-02-11T01:50:28.806Z,1005.80
2017-02-11T01:50:50.508Z,1005.80
2017-02-11T01:51:43.551Z,1005.84
2017-02-11T01:52:10.044Z,1005.80
2017-02-11T01:52:31.872Z,1005.82
2017-02-11T01:52:58.440Z,1005.84
2017-02-11T01:53:20.229Z,1005.89
2017-02-11T01:53:46.701Z,1005.88
2017-02-11T01:54:08.488Z,1005.87
2017-02-11T01:54:34.957Z,1005.79
2017-02-11T01:54:56.657Z,1005.83
2017-02-11T01:55:23.131Z,1005.90
2017-02-11T01:55:49.701Z,1005.95
2017-02-11T01:56:11.400Z,1005.93
2017-02-11T01:56:33.116Z,1005.94
2017-02-11T01:56:59.596Z,1005.97
2017-02-11T01:57:21.421Z,1006.03
2017-02-11T01:57:43.138Z,1006.09
2017-02-11T01:58:09.618Z,1006.07
2017-02-11T01:58:31.309Z,1006.03
2017-02-11T01:58:53.021Z,1006.11
2017-02-11T01:59:19.491Z,1006.12
2017-02-11T01:59:41.213Z,1006.12
2017-02-11T02:00:07.688Z,1006.15
2017-02-11T02:00:29.481Z,1006.13
2017-02-11T02:00:55.961Z,1006.18
2017-02-11T02:01:17.656Z,1006.18
2017-02-11T02:01:39.349Z,1006.14
2017-02-11T02:02:42.610Z,1006.04
2017-02-11T02:03:04.409Z,1006.09
2017-02-11T02:03:57.586Z,1006.05
2017-02-11T02:05:00.181Z,1005.91
2017-02-11T02:05:21.971Z,1005.92
2017-02-11T02:05:43.677Z,1005.91
2017-02-11T02:06:05.380Z,1005.91
2017-02-11T02:06:27.077Z,1005.90
2017-02-11T02:06:48.771Z,1005.89
2017-02-11T02:07:41.807Z,1005.85
2017-02-11T02:08:34.954Z,1005.83
2017-02-11T02:08:56.646Z,1005.92
2017-02-11T02:09:18.448Z,1005.90
2017-02-11T02:09:40.245Z,1005.91
2017-02-11T02:10:06.734Z,1005.82
2017-02-11T02:10:28.434Z,1005.86
2017-02-11T02:11:31.116Z,1005.84
2017-02-11T02:11:57.600Z,1005.82
2017-02-11T02:12:19.386Z,1005.82
2017-02-11T02:12:45.951Z,1005.76
2017-02-11T02:13:07.849Z,1005.76
2017-02-11T02:13:29.651Z,1005.75
2017-02-11T02:13:51.384Z,1005.72
2017-02-11T02:14:13.090Z,1005.67
2017-02-11T02:14:34.887Z,1005.65
2017-02-11T02:15:01.451Z,1005.74
2017-02-11T02:15:23.230Z,1005.71
2017-02-11T02:15:44.933Z,1005.66
2017-02-11T02:16:06.732Z,1005.64
2017-02-11T02:16:28.541Z,1005.66
2017-02-11T02:16:50.335Z,1005.70
2017-02-11T02:17:12.128Z,1005.65
2017-02-11T02:17:33.828Z,1005.60
2017-02-11T02:17:55.723Z,1005.63
2017-02-11T02:18:22.201Z,1005.67
2017-02-11T02:18:43.990Z,1005.67
2017-02-11T02:19:05.808Z,1005.66
2017-02-11T02:20:09.153Z,1005.81
2017-02-11T02:20:31.040Z,1005.80
2017-02-11T02:20:52.744Z,1005.81
2017-02-11T02:21:14.566Z,1005.86
2017-02-11T02:21:36.272Z,1005.84
2017-02-11T02:21:57.971Z,1005.80
2017-02-11T02:22:19.764Z,1005.80
2017-02-11T02:22:41.480Z,1005.81
2017-02-11T02:23:03.287Z,1005.80
2017-02-11T02:23:24.997Z,1005.84
2017-02-11T02:23:46.783Z,1005.79
2017-02-11T02:24:39.832Z,1005.69
2017-02-11T02:25:47.132Z,1005.73
2017-02-11T02:26:09.016Z,1005.70
2017-02-11T02:27:01.972Z,1005.78
2017-02-11T02:27:28.552Z,1005.75
2017-02-11T02:27:50.436Z,1005.77
2017-02-11T02:28:12.172Z,1005.77
2017-02-11T02:28:38.754Z,1005.80
2017-02-11T02:29:00.555Z,1005.79
2017-02-11T02:29:22.296Z,1005.77
2017-02-11T02:29:48.859Z,1005.81
2017-02-11T02:30:10.739Z,1005.73
2017-02-11T02:31:03.856Z,1005.69
2017-02-11T02:31:25.597Z,1005.73
2017-02-11T02:31:52.145Z,1005.70
2017-02-11T02:32:13.955Z,1005.70
2017-02-11T02:33:07.175Z,1005.74
2017-02-11T02:33:28.958Z,1005.79
2017-02-11T02:33:50.673Z,1005.79
2017-02-11T02:34:12.467Z,1005.78
2017-02-11T02:34:34.194Z,1005.80
2017-02-11T02:35:00.687Z,1005.78
2017-02-11T02:35:22.383Z,1005.71
2017-02-11T02:36:20.968Z,1005.71
2017-02-11T02:36:42.769Z,1005.70
2017-02-11T02:37:04.574Z,1005.74
2017-02-11T02:37:57.650Z,1005.73
2017-02-11T02:38:19.447Z,1005.72
2017-02-11T02:38:41.321Z,1005.70
2017-02-11T02:39:03.018Z,1005.70
2017-02-11T02:39:24.802Z,1005.69
2017-02-11T02:40:17.865Z,1005.70
2017-02-11T02:41:20.547Z,1005.58
2017-02-11T02:41:47.024Z,1005.67
2017-02-11T02:42:08.833Z,1005.59
2017-02-11T02:43:01.788Z,1005.63
2017-02-11T02:43:54.764Z,1005.71
2017-02-11T02:44:16.475Z,1005.70
2017-02-11T02:44:42.961Z,1005.70
2017-02-11T02:45:04.686Z,1005.66
2017-02-11T02:45:31.165Z,1005.68
2017-02-11T02:45:52.904Z,1005.67
2017-02-11T02:46:45.856Z,1005.62
2017-02-11T02:47:48.880Z,1005.68
2017-02-11T02:48:10.589Z,1005.71
2017-02-11T02:49:03.540Z,1005.79
2017-02-11T02:49:25.249Z,1005.72
2017-02-11T02:50:28.263Z,1005.61
2017-02-11T02:50:49.976Z,1005.65
2017-02-11T02:51:38.175Z,1005.64
2017-02-11T02:51:59.900Z,1005.63
2017-02-11T02:52:21.599Z,1005.59
2017-02-11T02:52:43.307Z,1005.67
2017-02-11T02:53:05.001Z,1005.65
2017-02-11T02:53:26.713Z,1005.59
2017-02-11T02:53:48.407Z,1005.58
2017-02-11T02:54:10.106Z,1005.59
2017-02-11T02:54:36.584Z,1005.61
2017-02-11T02:54:58.277Z,1005.70
2017-02-11T02:55:51.237Z,1005.64
2017-02-11T02:56:12.976Z,1005.68
2017-02-11T02:57:16.042Z,1005.59
2017-02-11T02:57:37.740Z,1005.59
2017-02-11T02:57:59.447Z,1005.59
2017-02-11T02:58:25.918Z,1005.68
2017-02-11T02:58:47.606Z,1005.67
2017-02-11T02:59:09.299Z,1005.67
2017-02-11T02:59:35.789Z,1005.61
2017-02-11T02:59:57.493Z,1005.62
2017-02-11T03:01:00.012Z,1005.57
2017-02-11T03:01:26.512Z,1005.60
2017-02-11T03:01:48.215Z,1005.54
2017-02-11T03:02:09.918Z,1005.63
2017-02-11T03:02:36.419Z,1005.61
2017-02-11T03:02:58.130Z,1005.60
2017-02-11T03:03:51.079Z,1005.61
2017-02-11T03:04:44.045Z,1005.58
2017-02-11T03:05:37.007Z,1005.52
2017-02-11T03:06:30.003Z,1005.49
2017-02-11T03:06:51.707Z,1005.52
2017-02-11T03:07:54.262Z,1005.47
2017-02-11T03:08:15.970Z,1005.48
2017-02-11T03:08:42.444Z,1005.51
2017-02-11T03:09:04.144Z,1005.50
2017-02-11T03:09:30.616Z,1005.50
2017-02-11T03:09:52.324Z,1005.48
2017-02-11T03:10:14.043Z,1005.51
2017-02-11T03:10:35.745Z,1005.50
2017-02-11T03:10:57.444Z,1005.46
2017-02-11T03:11:19.178Z,1005.48
2017-02-11T03:11:40.868Z,1005.58
2017-02-11T03:12:02.592Z,1005.53
2017-02-11T03:12:24.302Z,1005.51
2017-02-11T03:13:58.076Z,1005.43
2017-02-11T03:14:19.779Z,1005.39
2017-02-11T03:14:46.262Z,1005.45
2017-02-11T03:15:07.971Z,1005.40
2017-02-11T03:15:34.444Z,1005.44
2017-02-11T03:15:56.156Z,1005.44
2017-02-11T03:16:17.853Z,1005.43
2017-02-11T03:16:45.338Z,1005.47
2017-02-11T03:17:07.031Z,1005.46
2017-02-11T03:17:28.737Z,1005.43
2017-02-11T03:17:50.452Z,1005.46
2017-02-11T03:18:12.192Z,1005.42
2017-02-11T03:18:38.697Z,1005.48
2017-02-11T03:19:00.391Z,1005.45
2017-02-11T03:19:22.092Z,1005.43
2017-02-11T03:20:29.383Z,1005.41
2017-02-11T03:20:51.119Z,1005.43
2017-02-11T03:21:58.407Z,1005.47
2017-02-11T03:22:20.104Z,1005.41
2017-02-11T03:23:13.088Z,1005.39
2017-02-11T03:24:46.854Z,1005.40
2017-02-11T03:25:49.973Z,1005.46
2017-02-11T03:26:11.697Z,1005.46
2017-02-11T03:26:33.404Z,1005.47
2017-02-11T03:26:55.114Z,1005.49
2017-02-11T03:27:16.825Z,1005.49
2017-02-11T03:27:43.302Z,1005.44
2017-02-11T03:28:05.005Z,1005.50
2017-02-11T03:28:57.959Z,1005.55
2017-02-11T03:29:50.905Z,1005.50
2017-02-11T03:30:49.214Z,1005.45
2017-02-11T03:31:10.922Z,1005.47
2017-02-11T03:31:37.393Z,1005.40
2017-02-11T03:31:59.092Z,1005.50
2017-02-11T03:32:20.803Z,1005.47
2017-02-11T03:33:23.884Z,1005.45
2017-02-11T03:33:45.610Z,1005.47
2017-02-11T03:34:12.099Z,1005.47
2017-02-11T03:34:33.808Z,1005.47
2017-02-11T03:35:00.299Z,1005.48
2017-02-11T03:35:22.013Z,1005.46
2017-02-11T03:35:48.499Z,1005.47
2017-02-11T03:36:10.204Z,1005.44
2017-02-11T03:36:36.679Z,1005.44
2017-02-11T03:36:58.381Z,1005.44
2017-02-11T03:37:24.856Z,1005.40
2017-02-11T03:38:58.638Z,1005.43
2017-02-11T03:39:20.370Z,1005.41
2017-02-11T03:40:13.329Z,1005.43
2017-02-11T03:40:35.069Z,1005.43
2017-02-11T03:41:28.027Z,1005.45
2017-02-11T03:41:54.523Z,1005.45
2017-02-11T03:42:16.220Z,1005.52
2017-02-11T03:42:37.914Z,1005.49
2017-02-11T03:43:04.478Z,1005.44
2017-02-11T03:43:26.174Z,1005.53
2017-02-11T03:43:47.960Z,1005.52
2017-02-11T03:44:40.945Z,1005.50
2017-02-11T03:45:02.741Z,1005.54
2017-02-11T03:46:10.103Z,1005.47
2017-02-11T03:46:31.805Z,1005.45
2017-02-11T03:47:24.781Z,1005.43
2017-02-11T03:47:46.485Z,1005.48
2017-02-11T03:48:13.000Z,1005.38
2017-02-11T03:48:34.721Z,1005.41
2017-02-11T03:48:56.437Z,1005.40
2017-02-11T03:49:22.923Z,1005.49
2017-02-11T03:49:44.651Z,1005.44
2017-02-11T03:50:11.229Z,1005.45
2017-02-11T03:50:32.973Z,1005.47
2017-02-11T03:50:54.788Z,1005.45
2017-02-11T03:51:16.492Z,1005.44
2017-02-11T03:51:38.174Z,1005.46
2017-02-11T03:52:40.703Z,1005.51
2017-02-11T03:53:07.264Z,1005.43
2017-02-11T03:53:28.967Z,1005.41
2017-02-11T03:53:55.444Z,1005.51
2017-02-11T03:54:17.141Z,1005.46
2017-02-11T03:54:38.857Z,1005.51
2017-02-11T03:55:00.652Z,1005.50
2017-02-11T03:55:22.402Z,1005.45
2017-02-11T03:55:44.108Z,1005.43
2017-02-11T03:56:10.589Z,1005.43
2017-02-11T03:56:32.285Z,1005.44
2017-02-11T03:56:54.174Z,1005.41
2017-02-11T03:57:15.883Z,1005.40
2017-02-11T03:57:37.587Z,1005.41
2017-02-11T03:58:04.065Z,1005.47
2017-02-11T03:58:25.777Z,1005.41
2017-02-11T03:58:52.259Z,1005.41
2017-02-11T03:59:14.047Z,1005.36
2017-02-11T03:59:35.756Z,1005.37
2017-02-11T03:59:57.460Z,1005.39
2017-02-11T04:00:19.178Z,1005.37
2017-02-11T04:00:45.742Z,1005.39
2017-02-11T04:01:12.412Z,1005.39
2017-02-11T04:01:34.124Z,1005.37
2017-02-11T04:02:00.612Z,1005.37
2017-02-11T04:02:22.300Z,1005.39
2017-02-11T04:02:48.867Z,1005.39
2017-02-11T04:03:10.581Z,1005.33
2017-02-11T04:03:32.278Z,1005.37
2017-02-11T04:03:58.753Z,1005.31
2017-02-11T04:04:20.539Z,1005.36
2017-02-11T04:04:42.227Z,1005.38
2017-02-11T04:05:03.933Z,1005.35
2017-02-11T04:05:25.685Z,1005.41
2017-02-11T04:05:47.397Z,1005.46
2017-02-11T04:06:13.866Z,1005.40
2017-02-11T04:06:35.575Z,1005.46
2017-02-11T04:06:57.271Z,1005.52
2017-02-11T04:07:19.080Z,1005.44
2017-02-11T04:07:40.801Z,1005.43
2017-02-11T04:08:33.825Z,1005.46
2017-02-11T04:09:00.296Z,1005.43
2017-02-11T04:09:21.988Z,1005.41
2017-02-11T04:09:43.688Z,1005.43
2017-02-11T04:10:36.688Z,1005.41
2017-02-11T04:11:03.164Z,1005.37
2017-02-11T04:11:24.856Z,1005.40
2017-02-11T04:11:46.558Z,1005.40
2017-02-11T04:12:08.269Z,1005.36
2017-02-11T04:12:29.957Z,1005.38
2017-02-11T04:13:28.350Z,1005.36
2017-02-11T04:13:50.072Z,1005.33
2017-02-11T04:14:11.796Z,1005.37
2017-02-11T04:14:38.272Z,1005.37
2017-02-11T04:14:59.982Z,1005.36
2017-02-11T04:15:21.692Z,1005.37
2017-02-11T04:15:48.259Z,1005.30
2017-02-11T04:16:09.969Z,1005.37
2017-02-11T04:16:36.441Z,1005.31
2017-02-11T04:16:58.240Z,1005.34
2017-02-11T04:17:20.034Z,1005.36
2017-02-11T04:17:41.736Z,1005.32
2017-02-11T04:18:03.439Z,1005.33
2017-02-11T04:18:56.400Z,1005.29
2017-02-11T04:19:49.346Z,1005.34
2017-02-11T04:20:11.057Z,1005.36
2017-02-11T04:20:32.762Z,1005.35
2017-02-11T04:20:54.457Z,1005.30
2017-02-11T04:21:20.931Z,1005.40
2017-02-11T04:21:42.665Z,1005.38
2017-02-11T04:22:09.139Z,1005.38
2017-02-11T04:22:30.834Z,1005.38
2017-02-11T04:22:57.315Z,1005.38
2017-02-11T04:23:19.009Z,1005.39
2017-02-11T04:23:45.490Z,1005.41
2017-02-11T04:24:11.971Z,1005.39
2017-02-11T04:24:33.672Z,1005.39
2017-02-11T04:24:55.378Z,1005.42
2017-02-11T04:25:17.076Z,1005.35
2017-02-11T04:25:38.786Z,1005.38
2017-02-11T04:26:05.258Z,1005.44
2017-02-11T04:26:26.954Z,1005.43
2017-02-11T04:26:53.431Z,1005.45
2017-02-11T04:27:15.155Z,1005.43
2017-02-11T04:27:36.869Z,1005.50
2017-02-11T04:28:29.833Z,1005.57
2017-02-11T04:28:56.326Z,1005.52
2017-02-11T04:29:18.031Z,1005.54
2017-02-11T04:29:39.726Z,1005.52
2017-02-11T04:30:04.173Z,1005.62
2017-02-11T04:30:25.880Z,1005.57
2017-02-11T04:30:52.366Z,1005.51
2017-02-11T04:31:14.071Z,1005.56
2017-02-11T04:31:35.782Z,1005.59
2017-02-11T04:32:02.269Z,1005.58
2017-02-11T04:32:23.999Z,1005.50
2017-02-11T04:33:16.956Z,1005.48
2017-02-11T04:33:43.442Z,1005.50
2017-02-11T04:34:05.149Z,1005.52
2017-02-11T04:34:31.625Z,1005.54
2017-02-11T04:34:53.318Z,1005.54
2017-02-11T04:35:19.800Z,1005.49
2017-02-11T04:35:41.504Z,1005.50
2017-02-11T04:36:03.203Z,1005.52
2017-02-11T04:36:24.909Z,1005.50
2017-02-11T04:36:46.613Z,1005.46
2017-02-11T04:37:39.591Z,1005.43
2017-02-11T04:38:06.066Z,1005.49
2017-02-11T04:38:27.767Z,1005.44
2017-02-11T04:38:49.471Z,1005.44
2017-02-11T04:39:42.430Z,1005.52
2017-02-11T04:40:35.380Z,1005.48
2017-02-11T04:41:01.861Z,1005.49
2017-02-11T04:41:23.571Z,1005.44
2017-02-11T04:42:16.540Z,1005.50
2017-02-11T04:43:09.485Z,1005.45
2017-02-11T04:44:02.438Z,1005.49
2017-02-11T04:44:55.394Z,1005.50
2017-02-11T04:45:17.088Z,1005.48
2017-02-11T04:45:38.808Z,1005.44
2017-02-11T04:46:00.517Z,1005.43
2017-02-11T04:46:22.227Z,1005.47
2017-02-11T04:46:48.706Z,1005.47
2017-02-11T04:47:10.410Z,1005.43
2017-02-11T04:47:32.102Z,1005.42
2017-02-11T04:47:58.572Z,1005.43
2017-02-11T04:48:20.266Z,1005.47
2017-02-11T04:48:41.982Z,1005.45
2017-02-11T04:49:03.689Z,1005.41
2017-02-11T04:49:25.400Z,1005.44
2017-02-11T04:49:47.094Z,1005.38
2017-02-11T04:50:13.572Z,1005.43
2017-02-11T04:50:35.262Z,1005.44
2017-02-11T04:50:56.962Z,1005.48
2017-02-11T04:51:23.429Z,1005.45
2017-02-11T04:51:45.129Z,1005.47
2017-02-11T04:52:11.635Z,1005.44
2017-02-11T04:52:33.328Z,1005.43
2017-02-11T04:52:55.062Z,1005.43
2017-02-11T04:53:21.533Z,1005.47
2017-02-11T04:53:43.229Z,1005.46
2017-02-11T04:54:04.938Z,1005.41
2017-02-11T04:54:26.643Z,1005.41
2017-02-11T04:54:48.346Z,1005.45
2017-02-11T04:55:10.050Z,1005.44
2017-02-11T04:55:31.758Z,1005.42
2017-02-11T04:55:53.492Z,1005.40
2017-02-11T04:56:19.959Z,1005.43
2017-02-11T04:56:41.654Z,1005.44
2017-02-11T04:57:03.358Z,1005.42
2017-02-11T04:57:29.843Z,1005.43
2017-02-11T04:57:51.558Z,1005.42
2017-02-11T04:58:44.617Z,1005.35
2017-02-11T04:59:51.790Z,1005.34
2017-02-11T05:00:13.491Z,1005.34
2017-02-11T05:00:35.389Z,1005.34
2017-02-11T05:01:28.346Z,1005.34
2017-02-11T05:01:54.824Z,1005.40
2017-02-11T05:02:16.533Z,1005.35
2017-02-11T05:03:23.817Z,1005.40
2017-02-11T05:03:45.516Z,1005.42
2017-02-11T05:04:07.227Z,1005.38
2017-02-11T05:04:33.708Z,1005.31
2017-02-11T05:04:55.440Z,1005.35
2017-02-11T05:05:17.147Z,1005.38
2017-02-11T05:05:39.003Z,1005.35
2017-02-11T05:06:00.794Z,1005.34
2017-02-11T05:06:22.502Z,1005.35
2017-02-11T05:06:48.975Z,1005.33
2017-02-11T05:07:10.766Z,1005.34
2017-02-11T05:07:37.338Z,1005.32
2017-02-11T05:07:59.144Z,1005.32
2017-02-11T05:08:20.940Z,1005.30
2017-02-11T05:09:13.935Z,1005.28
2017-02-11T05:09:40.415Z,1005.35
2017-02-11T05:10:02.207Z,1005.38
2017-02-11T05:10:23.907Z,1005.32
2017-02-11T05:10:45.647Z,1005.36
2017-02-11T05:11:07.378Z,1005.34
2017-02-11T05:12:00.295Z,1005.31
2017-02-11T05:12:26.777Z,1005.35
2017-02-11T05:12:48.566Z,1005.37
2017-02-11T05:13:10.260Z,1005.39
2017-02-11T05:13:36.733Z,1005.34
2017-02-11T05:13:58.522Z,1005.31
2017-02-11T05:15:01.120Z,1005.41
2017-02-11T05:15:22.905Z,1005.43
2017-02-11T05:16:15.855Z,1005.35
2017-02-11T05:16:42.422Z,1005.40
2017-02-11T05:17:04.109Z,1005.37
2017-02-11T05:17:30.587Z,1005.33
2017-02-11T05:17:52.383Z,1005.32
2017-02-11T05:18:54.887Z,1005.38
2017-02-11T05:19:21.464Z,1005.31
2017-02-11T05:19:43.160Z,1005.31
2017-02-11T05:20:09.636Z,1005.31
2017-02-11T05:20:31.453Z,1005.30
2017-02-11T05:20:53.188Z,1005.25
2017-02-11T05:21:14.905Z,1005.29
2017-02-11T05:21:36.726Z,1005.28
2017-02-11T05:21:58.438Z,1005.29
2017-02-11T05:22:20.159Z,1005.26
2017-02-11T05:22:41.855Z,1005.30
2017-02-11T05:23:03.563Z,1005.25
2017-02-11T05:23:30.135Z,1005.26
2017-02-11T05:23:51.855Z,1005.28
2017-02-11T05:24:13.567Z,1005.25
2017-02-11T05:24:35.275Z,1005.29
2017-02-11T05:24:57.082Z,1005.22
2017-02-11T05:25:18.788Z,1005.28
2017-02-11T05:25:40.506Z,1005.25
2017-02-11T05:26:02.270Z,1005.23
2017-02-11T05:26:23.980Z,1005.25
2017-02-11T05:26:50.459Z,1005.27
2017-02-11T05:27:12.189Z,1005.26
2017-02-11T05:27:33.989Z,1005.24
2017-02-11T05:28:00.458Z,1005.23
2017-02-11T05:28:22.165Z,1005.25
2017-02-11T05:28:48.642Z,1005.31
2017-02-11T05:29:10.424Z,1005.29
2017-02-11T05:29:32.128Z,1005.31
2017-02-11T05:29:53.830Z,1005.33
2017-02-11T05:30:15.523Z,1005.31
2017-02-11T05:30:37.326Z,1005.32
2017-02-11T05:30:59.026Z,1005.42
2017-02-11T05:31:20.760Z,1005.44
2017-02-11T05:31:42.464Z,1005.36
2017-02-11T05:32:04.263Z,1005.39
2017-02-11T05:32:25.956Z,1005.37
2017-02-11T05:32:52.430Z,1005.33
2017-02-11T05:33:14.220Z,1005.33
2017-02-11T05:33:35.923Z,1005.33
2017-02-11T05:33:57.810Z,1005.31
2017-02-11T05:34:19.529Z,1005.32
2017-02-11T05:34:41.393Z,1005.33
2017-02-11T05:35:03.195Z,1005.32
2017-02-11T05:35:24.902Z,1005.30
2017-02-11T05:35:46.695Z,1005.30
2017-02-11T05:36:08.505Z,1005.27
2017-02-11T05:36:34.876Z,1005.30
2017-02-11T05:36:56.665Z,1005.26
2017-02-11T05:37:23.234Z,1005.34
2017-02-11T05:37:45.042Z,1005.29
2017-02-11T05:38:06.837Z,1005.29
2017-02-11T05:38:59.981Z,1005.29
2017-02-11T05:39:21.692Z,1005.25
2017-02-11T05:39:43.396Z,1005.26
2017-02-11T05:40:06.180Z,1005.27
2017-02-11T05:41:09.400Z,1005.28
2017-02-11T05:41:31.153Z,1005.31